CheckWX is a tool to help pilots better visualize weather data.  It is not intended as a substitute for an official pre-flight weather briefing.

07:09:10 UTC

OEKM TAF
King Khaled Air Base Airport
Saudi Arabia
TAF OEKM 190500Z 1906/1915 02012KT 9999 FEW020 SCT080 BECMG 1908/1910 28012KT TEMPO 1910/1915 TSRA SCT020 FEW025CB

Jun-19@
06:00 UTC

Jun-19 @ 06:00 UTC

Jun-19@
08:00 UTC

Jun-19 @ 08:00 UTC

TAF OEKM 190500Z 1906/1915 02012KT 9999 FEW020 SCT080
Wind
  • 020° at 12 KTS
Cloud Levels
  • Few at 2,000' AGL
  • Scattered at 8,000' AGL

Jun-19@
08:00 UTC

Jun-19 @ 08:00 UTC

Jun-19@
15:00 UTC

Jun-19 @ 15:00 UTC

BECMG 1908/1910 28012KT

Becoming

Becoming Conditions expected by Wed, Jun 19, 2019 @ 10:00 UTC

Wind
  • 280° at 12 KTS
Cloud Levels
  • Few at 2,000' AGL
  • Scattered at 8,000' AGL

Jun-19@
10:00 UTC

Jun-19 @ 10:00 UTC

Jun-19@
15:00 UTC

Jun-19 @ 15:00 UTC

TEMPO 1910/1915 TSRA SCT020 FEW025CB

Temporary

Temporary Changes expected for less than half the time period

Conditions
Thunderstorm, Rain
Cloud Levels
  • Scattered at 2,000' AGL
  • Few at 2,500' AGL